Etusivu
METAR-TAF:

METAR-TAF

Lentoasemat :

Burnet Municipal Airport (Kate Craddock Field)

Burnet, Texas, Yhdysvallat

Leveyspiiri: 30-44-26N, Pituuspiiri: 098-14-07W, korkeus merenpinnasta: 392 m

Tämänhetkinen sää

Tämä raportti tehtiin 52 minuuttia sitten, kello 00.53 UTC
Tuuli 5 kn kaakosta
Lämpötila 22°C
Kosteus 50%
Ilmanpaine 1008 hPa
Näkyvyys: 16.1 km
selkeää

METAR: KBMQ 190053Z AUTO 13005KT 10SM CLR 22/11 A2976 RMK AO2 SLP066 T02220111

Aika: 20:45 (01:45 UTC)


TAF: puuttuu

Säähavainnot ja -ennusteet yli 4000 lentoasemalta (METAR- ja TAF-raportit).

Käytössä olevat sääasemat on merkitty karttaan keltaisilla ja punaisilla pisteillä.

Aseta hiiri pisteen päälle nähdäksesi sääaseman nimen.

Klikkaa sitten nähdäksesi säähavainnot ja -ennusteet.

Kartan vaihtaminen: klikkaa mustalla rastilla varustettuja vihreitä pisteitä, niin voit zoomata sisään; viivalla varustettua vihreää pistettä, niin voit zoomata ulos tai vihreitä nuolia, niin pääset viereisille kartoille.


METAR-TAF: